sensor_id;sensor_type;location;lat;lon;timestamp;pressure;altitude;pressure_sealevel;temperature;humidity
23118;BME280;11728;50.624;6.014;2023-03-19T00:00:53;97849.19;;;10.47;91.31
23118;BME280;11728;50.624;6.014;2023-03-19T00:05:53;97845.69;;;10.47;91.51
23118;BME280;11728;50.624;6.014;2023-03-19T00:10:54;97848.59;;;10.38;91.32
23118;BME280;11728;50.624;6.014;2023-03-19T00:15:54;97844.47;;;10.29;91.49
23118;BME280;11728;50.624;6.014;2023-03-19T00:20:55;97849.91;;;10.23;91.92
23118;BME280;11728;50.624;6.014;2023-03-19T00:25:55;97850.06;;;10.19;92.31
23118;BME280;11728;50.624;6.014;2023-03-19T00:30:56;97835.78;;;10.26;92.20
23118;BME280;11728;50.624;6.014;2023-03-19T00:35:56;97842.41;;;10.39;92.15
23118;BME280;11728;50.624;6.014;2023-03-19T00:40:57;97846.53;;;10.49;92.08
23118;BME280;11728;50.624;6.014;2023-03-19T00:45:58;97846.22;;;10.59;92.52
23118;BME280;11728;50.624;6.014;2023-03-19T00:51:07;97856.16;;;10.78;91.99
23118;BME280;11728;50.624;6.014;2023-03-19T00:56:09;97851.41;;;10.89;91.27
23118;BME280;11728;50.624;6.014;2023-03-19T01:01:12;97858.38;;;10.92;91.20
23118;BME280;11728;50.624;6.014;2023-03-19T01:06:13;97863.50;;;10.98;91.05
23118;BME280;11728;50.624;6.014;2023-03-19T01:11:14;97869.53;;;11.01;90.94
23118;BME280;11728;50.624;6.014;2023-03-19T01:16:16;97858.78;;;11.07;90.58
23118;BME280;11728;50.624;6.014;2023-03-19T01:21:16;97858.66;;;11.10;90.37
23118;BME280;11728;50.624;6.014;2023-03-19T01:26:16;97864.72;;;11.14;90.15
23118;BME280;11728;50.624;6.014;2023-03-19T01:31:17;97861.16;;;11.15;90.10
23118;BME280;11728;50.624;6.014;2023-03-19T01:36:18;97867.22;;;11.18;89.64
23118;BME280;11728;50.624;6.014;2023-03-19T01:41:18;97867.13;;;11.21;89.51
23118;BME280;11728;50.624;6.014;2023-03-19T01:46:25;97868.09;;;11.19;89.73
23118;BME280;11728;50.624;6.014;2023-03-19T01:51:34;97865.53;;;11.16;89.92
23118;BME280;11728;50.624;6.014;2023-03-19T01:56:37;97864.69;;;11.15;89.62
23118;BME280;11728;50.624;6.014;2023-03-19T02:01:44;97872.81;;;11.09;89.53
23118;BME280;11728;50.624;6.014;2023-03-19T02:06:46;97870.72;;;10.91;89.88
23118;BME280;11728;50.624;6.014;2023-03-19T02:11:47;97874.75;;;10.75;90.07
23118;BME280;11728;50.624;6.014;2023-03-19T02:16:47;97858.53;;;10.59;90.55
23118;BME280;11728;50.624;6.014;2023-03-19T02:21:48;97868.75;;;10.40;91.00
23118;BME280;11728;50.624;6.014;2023-03-19T02:26:49;97863.00;;;10.28;91.37
23118;BME280;11728;50.624;6.014;2023-03-19T02:31:49;97867.75;;;10.14;92.17
23118;BME280;11728;50.624;6.014;2023-03-19T02:36:54;97856.41;;;10.12;92.57
23118;BME280;11728;50.624;6.014;2023-03-19T02:41:59;97871.47;;;10.07;92.65
23118;BME280;11728;50.624;6.014;2023-03-19T02:47:01;97860.19;;;10.02;93.06
23118;BME280;11728;50.624;6.014;2023-03-19T02:52:01;97872.56;;;10.00;93.15
23118;BME280;11728;50.624;6.014;2023-03-19T02:57:02;97874.91;;;10.10;93.65
23118;BME280;11728;50.624;6.014;2023-03-19T03:02:03;97870.16;;;10.23;93.06
23118;BME280;11728;50.624;6.014;2023-03-19T03:07:04;97875.16;;;10.32;92.83
23118;BME280;11728;50.624;6.014;2023-03-19T03:12:05;97878.53;;;10.37;92.72
23118;BME280;11728;50.624;6.014;2023-03-19T03:17:06;97866.94;;;10.42;92.95
23118;BME280;11728;50.624;6.014;2023-03-19T03:22:07;97870.22;;;10.50;92.53
23118;BME280;11728;50.624;6.014;2023-03-19T03:27:08;97866.75;;;10.50;92.73
23118;BME280;11728;50.624;6.014;2023-03-19T03:32:08;97871.78;;;10.57;92.28
23118;BME280;11728;50.624;6.014;2023-03-19T03:37:09;97876.03;;;10.63;92.37
23118;BME280;11728;50.624;6.014;2023-03-19T03:42:09;97868.94;;;10.65;92.11
23118;BME280;11728;50.624;6.014;2023-03-19T03:47:10;97870.56;;;10.69;92.19
23118;BME280;11728;50.624;6.014;2023-03-19T03:52:11;97870.47;;;10.72;92.15
23118;BME280;11728;50.624;6.014;2023-03-19T03:57:11;97873.31;;;10.64;92.40
23118;BME280;11728;50.624;6.014;2023-03-19T04:02:12;97875.06;;;10.65;92.70
23118;BME280;11728;50.624;6.014;2023-03-19T04:07:12;97886.41;;;10.69;92.46
23118;BME280;11728;50.624;6.014;2023-03-19T04:12:13;97895.81;;;10.77;92.96
23118;BME280;11728;50.624;6.014;2023-03-19T04:17:13;97892.94;;;10.84;92.20
23118;BME280;11728;50.624;6.014;2023-03-19T04:22:13;97897.28;;;10.87;92.01
23118;BME280;11728;50.624;6.014;2023-03-19T04:27:15;97899.09;;;10.85;92.19
23118;BME280;11728;50.624;6.014;2023-03-19T04:32:15;97896.44;;;10.86;92.30
23118;BME280;11728;50.624;6.014;2023-03-19T04:37:15;97899.00;;;10.88;92.46
23118;BME280;11728;50.624;6.014;2023-03-19T04:42:16;97901.50;;;10.92;92.24
23118;BME280;11728;50.624;6.014;2023-03-19T04:47:17;97893.44;;;10.97;92.39
23118;BME280;11728;50.624;6.014;2023-03-19T04:52:17;97903.19;;;10.95;92.52
23118;BME280;11728;50.624;6.014;2023-03-19T04:57:18;97903.97;;;10.98;92.72
23118;BME280;11728;50.624;6.014;2023-03-19T05:02:18;97904.09;;;10.94;92.74
23118;BME280;11728;50.624;6.014;2023-03-19T05:07:19;97910.53;;;10.85;93.55
23118;BME280;11728;50.624;6.014;2023-03-19T05:12:19;97922.72;;;10.89;93.59
23118;BME280;11728;50.624;6.014;2023-03-19T05:17:20;97926.13;;;10.94;93.28
23118;BME280;11728;50.624;6.014;2023-03-19T05:22:20;97932.19;;;10.96;93.74
23118;BME280;11728;50.624;6.014;2023-03-19T05:27:21;97935.72;;;10.97;93.66
23118;BME280;11728;50.624;6.014;2023-03-19T05:32:21;97930.63;;;10.91;93.91
23118;BME280;11728;50.624;6.014;2023-03-19T05:37:22;97932.53;;;10.86;94.36
23118;BME280;11728;50.624;6.014;2023-03-19T05:42:22;97926.47;;;10.82;94.55
23118;BME280;11728;50.624;6.014;2023-03-19T05:47:22;97926.56;;;10.79;94.61
23118;BME280;11728;50.624;6.014;2023-03-19T05:52:23;97940.50;;;10.84;94.72
23118;BME280;11728;50.624;6.014;2023-03-19T05:57:23;97943.00;;;10.89;94.65
23118;BME280;11728;50.624;6.014;2023-03-19T06:02:24;97947.41;;;10.88;94.75
23118;BME280;11728;50.624;6.014;2023-03-19T06:07:24;97942.13;;;10.88;94.91
23118;BME280;11728;50.624;6.014;2023-03-19T06:12:24;97950.88;;;10.90;94.84
23118;BME280;11728;50.624;6.014;2023-03-19T06:17:25;97952.69;;;10.88;94.82
23118;BME280;11728;50.624;6.014;2023-03-19T06:22:25;97952.53;;;10.94;94.86
23118;BME280;11728;50.624;6.014;2023-03-19T06:27:26;97960.16;;;11.03;94.75
23118;BME280;11728;50.624;6.014;2023-03-19T06:32:27;97962.53;;;11.12;94.44
23118;BME280;11728;50.624;6.014;2023-03-19T06:37:27;97965.81;;;11.20;94.23
23118;BME280;11728;50.624;6.014;2023-03-19T06:42:27;97972.75;;;11.24;94.27
23118;BME280;11728;50.624;6.014;2023-03-19T06:47:28;97973.53;;;11.28;94.51
23118;BME280;11728;50.624;6.014;2023-03-19T06:52:28;97979.34;;;11.39;94.40
23118;BME280;11728;50.624;6.014;2023-03-19T06:57:29;97973.72;;;11.49;94.21
23118;BME280;11728;50.624;6.014;2023-03-19T07:02:29;97983.28;;;11.54;94.12
23118;BME280;11728;50.624;6.014;2023-03-19T07:07:30;97984.75;;;11.63;93.87
23118;BME280;11728;50.624;6.014;2023-03-19T07:12:31;97989.03;;;11.67;93.85
23118;BME280;11728;50.624;6.014;2023-03-19T07:17:31;97997.97;;;11.90;93.68
23118;BME280;11728;50.624;6.014;2023-03-19T07:22:32;97999.97;;;12.10;93.08
23118;BME280;11728;50.624;6.014;2023-03-19T07:27:32;97988.72;;;12.27;92.10
23118;BME280;11728;50.624;6.014;2023-03-19T07:32:33;97997.13;;;12.40;91.89
23118;BME280;11728;50.624;6.014;2023-03-19T07:37:33;97990.75;;;12.70;90.81
23118;BME280;11728;50.624;6.014;2023-03-19T07:42:34;97987.66;;;13.52;90.00
23118;BME280;11728;50.624;6.014;2023-03-19T07:47:35;97980.22;;;15.41;84.54
23118;BME280;11728;50.624;6.014;2023-03-19T07:52:36;97980.16;;;17.64;74.66
23118;BME280;11728;50.624;6.014;2023-03-19T07:57:37;97983.22;;;17.41;71.58
23118;BME280;11728;50.624;6.014;2023-03-19T08:02:37;98005.72;;;16.01;73.63
23118;BME280;11728;50.624;6.014;2023-03-19T08:07:38;98007.44;;;14.90;76.32
23118;BME280;11728;50.624;6.014;2023-03-19T08:12:38;98018.16;;;14.27;78.58
23118;BME280;11728;50.624;6.014;2023-03-19T08:17:40;98025.63;;;13.96;79.49
23118;BME280;11728;50.624;6.014;2023-03-19T08:22:41;98022.75;;;14.01;79.44
23118;BME280;11728;50.624;6.014;2023-03-19T08:27:42;98026.66;;;13.92;79.94
23118;BME280;11728;50.624;6.014;2023-03-19T08:32:42;98029.13;;;13.76;80.14
23118;BME280;11728;50.624;6.014;2023-03-19T08:37:45;98030.31;;;13.46;80.83
23118;BME280;11728;50.624;6.014;2023-03-19T08:42:46;98038.28;;;13.23;82.00
23118;BME280;11728;50.624;6.014;2023-03-19T08:47:46;98041.59;;;13.05;83.37
23118;BME280;11728;50.624;6.014;2023-03-19T08:52:47;98043.16;;;12.86;83.71
23118;BME280;11728;50.624;6.014;2023-03-19T08:57:47;98053.16;;;12.78;84.02
23118;BME280;11728;50.624;6.014;2023-03-19T09:02:48;98050.69;;;12.72;84.58
23118;BME280;11728;50.624;6.014;2023-03-19T09:07:49;98058.28;;;12.58;85.54
23118;BME280;11728;50.624;6.014;2023-03-19T09:12:50;98067.47;;;12.48;86.93
23118;BME280;11728;50.624;6.014;2023-03-19T09:17:50;98067.41;;;12.50;87.83
23118;BME280;11728;50.624;6.014;2023-03-19T09:22:51;98073.75;;;12.44;88.70
23118;BME280;11728;50.624;6.014;2023-03-19T09:27:51;98070.50;;;12.62;89.06
23118;BME280;11728;50.624;6.014;2023-03-19T09:32:51;98073.53;;;12.76;89.34
23118;BME280;11728;50.624;6.014;2023-03-19T09:37:52;98077.97;;;12.76;89.71
23118;BME280;11728;50.624;6.014;2023-03-19T09:48:30;98084.13;;;14.38;88.68
23118;BME280;11728;50.624;6.014;2023-03-19T09:53:44;98074.06;;;16.89;79.64
23118;BME280;11728;50.624;6.014;2023-03-19T09:58:47;98077.31;;;17.12;77.67
23118;BME280;11728;50.624;6.014;2023-03-19T10:20:05;98075.66;;;19.98;63.48
23118;BME280;11728;50.624;6.014;2023-03-19T10:25:15;98074.44;;;22.22;58.73
23118;BME280;11728;50.624;6.014;2023-03-19T10:30:18;98073.69;;;22.33;54.56
23118;BME280;11728;50.624;6.014;2023-03-19T10:35:26;98072.69;;;20.57;55.04
23118;BME280;11728;50.624;6.014;2023-03-19T10:40:41;98071.63;;;20.19;55.66
23118;BME280;11728;50.624;6.014;2023-03-19T10:45:43;98072.75;;;21.71;53.09
23118;BME280;11728;50.624;6.014;2023-03-19T10:50:56;98079.28;;;22.17;50.23
23118;BME280;11728;50.624;6.014;2023-03-19T10:56:04;98081.81;;;20.40;51.23
23118;BME280;11728;50.624;6.014;2023-03-19T11:01:07;98081.50;;;19.20;53.34
23118;BME280;11728;50.624;6.014;2023-03-19T11:11:31;98094.66;;;18.49;56.13
23118;BME280;11728;50.624;6.014;2023-03-19T11:27:02;98085.69;;;21.28;52.11
23118;BME280;11728;50.624;6.014;2023-03-19T11:37:57;98087.75;;;19.20;52.51
23118;BME280;11728;50.624;6.014;2023-03-19T11:43:18;98103.25;;;17.92;55.21
23118;BME280;11728;50.624;6.014;2023-03-19T11:48:35;98104.53;;;17.19;57.59
23118;BME280;11728;50.624;6.014;2023-03-19T12:04:48;98096.88;;;17.30;58.66
23118;BME280;11728;50.624;6.014;2023-03-19T12:15:26;98075.03;;;21.65;51.65
23118;BME280;11728;50.624;6.014;2023-03-19T12:36:10;98099.34;;;17.50;54.45
23118;BME280;11728;50.624;6.014;2023-03-19T12:41:20;98109.94;;;17.17;55.06
23118;BME280;11728;50.624;6.014;2023-03-19T12:51:26;98101.63;;;16.90;57.21
23118;BME280;11728;50.624;6.014;2023-03-19T12:56:43;98105.22;;;16.72;58.43
23118;BME280;11728;50.624;6.014;2023-03-19T13:01:48;98106.16;;;16.71;59.14
23118;BME280;11728;50.624;6.014;2023-03-19T13:06:53;98101.63;;;16.90;58.42
23118;BME280;11728;50.624;6.014;2023-03-19T13:11:59;98098.00;;;17.24;57.50
23118;BME280;11728;50.624;6.014;2023-03-19T13:22:11;98098.41;;;17.34;57.58
23118;BME280;11728;50.624;6.014;2023-03-19T13:27:20;98096.22;;;17.08;57.71
23118;BME280;11728;50.624;6.014;2023-03-19T13:32:24;98090.56;;;17.14;58.24
23118;BME280;11728;50.624;6.014;2023-03-19T13:37:26;98096.84;;;17.13;58.18
23118;BME280;11728;50.624;6.014;2023-03-19T13:42:37;98087.03;;;16.96;59.00
23118;BME280;11728;50.624;6.014;2023-03-19T13:47:41;98084.91;;;17.20;58.48
23118;BME280;11728;50.624;6.014;2023-03-19T13:58:14;98079.25;;;18.98;52.96
23118;BME280;11728;50.624;6.014;2023-03-19T14:03:19;98083.38;;;19.33;51.85
23118;BME280;11728;50.624;6.014;2023-03-19T14:08:24;98078.38;;;19.27;52.23
23118;BME280;11728;50.624;6.014;2023-03-19T14:13:42;98095.19;;;19.29;51.58
23118;BME280;11728;50.624;6.014;2023-03-19T14:18:47;98094.63;;;19.95;50.25
23118;BME280;11728;50.624;6.014;2023-03-19T14:23:53;98092.53;;;19.29;50.97
23118;BME280;11728;50.624;6.014;2023-03-19T14:28:58;98094.91;;;19.20;51.08
23118;BME280;11728;50.624;6.014;2023-03-19T14:39:23;98112.28;;;18.22;54.20
23118;BME280;11728;50.624;6.014;2023-03-19T14:55:31;98125.72;;;17.22;55.86
23118;BME280;11728;50.624;6.014;2023-03-19T15:00:42;98120.63;;;17.00;55.30
23118;BME280;11728;50.624;6.014;2023-03-19T15:05:42;98138.41;;;16.83;55.19
23118;BME280;11728;50.624;6.014;2023-03-19T15:11:18;98133.44;;;16.59;55.15
23118;BME280;11728;50.624;6.014;2023-03-19T15:21:22;98140.25;;;16.29;56.74
23118;BME280;11728;50.624;6.014;2023-03-19T15:26:31;98137.91;;;16.03;57.81
23118;BME280;11728;50.624;6.014;2023-03-19T15:31:48;98146.00;;;15.63;60.06
23118;BME280;11728;50.624;6.014;2023-03-19T15:37:08;98156.53;;;15.27;61.40
23118;BME280;11728;50.624;6.014;2023-03-19T15:42:09;98159.81;;;15.12;62.08
23118;BME280;11728;50.624;6.014;2023-03-19T15:47:13;98172.03;;;14.96;62.81
23118;BME280;11728;50.624;6.014;2023-03-19T15:52:17;98177.06;;;14.82;63.94
23118;BME280;11728;50.624;6.014;2023-03-19T15:57:19;98180.91;;;14.75;64.82
23118;BME280;11728;50.624;6.014;2023-03-19T16:02:26;98184.47;;;14.74;65.46
23118;BME280;11728;50.624;6.014;2023-03-19T16:12:39;98176.22;;;14.81;65.05
23118;BME280;11728;50.624;6.014;2023-03-19T16:17:40;98188.53;;;14.82;64.51
23118;BME280;11728;50.624;6.014;2023-03-19T16:22:41;98184.91;;;14.85;63.66
23118;BME280;11728;50.624;6.014;2023-03-19T16:27:46;98189.16;;;14.89;62.87
23118;BME280;11728;50.624;6.014;2023-03-19T16:32:56;98185.09;;;14.80;62.11
23118;BME280;11728;50.624;6.014;2023-03-19T16:38:16;98191.41;;;14.78;62.33
23118;BME280;11728;50.624;6.014;2023-03-19T16:43:22;98211.50;;;14.63;63.17
23118;BME280;11728;50.624;6.014;2023-03-19T16:48:22;98219.72;;;14.58;63.90
23118;BME280;11728;50.624;6.014;2023-03-19T16:53:28;98224.03;;;14.60;63.14
23118;BME280;11728;50.624;6.014;2023-03-19T16:58:37;98234.91;;;14.54;63.51
23118;BME280;11728;50.624;6.014;2023-03-19T17:03:41;98243.88;;;14.52;63.42
23118;BME280;11728;50.624;6.014;2023-03-19T17:08:42;98267.22;;;14.44;63.80
23118;BME280;11728;50.624;6.014;2023-03-19T17:13:43;98272.72;;;14.39;64.24
23118;BME280;11728;50.624;6.014;2023-03-19T17:18:44;98283.56;;;14.33;64.20
23118;BME280;11728;50.624;6.014;2023-03-19T17:23:46;98284.66;;;14.28;64.96
23118;BME280;11728;50.624;6.014;2023-03-19T17:28:48;98290.25;;;14.20;65.59
23118;BME280;11728;50.624;6.014;2023-03-19T17:33:49;98298.56;;;14.11;65.41
23118;BME280;11728;50.624;6.014;2023-03-19T17:38:50;98308.66;;;14.00;65.18
23118;BME280;11728;50.624;6.014;2023-03-19T17:43:51;98309.81;;;13.93;65.08
23118;BME280;11728;50.624;6.014;2023-03-19T17:48:52;98319.69;;;13.90;65.20
23118;BME280;11728;50.624;6.014;2023-03-19T17:53:54;98322.50;;;13.85;65.19
23118;BME280;11728;50.624;6.014;2023-03-19T17:58:54;98319.94;;;13.82;64.98
23118;BME280;11728;50.624;6.014;2023-03-19T18:03:56;98332.56;;;13.76;65.52
23118;BME280;11728;50.624;6.014;2023-03-19T18:08:57;98341.66;;;13.69;66.23
23118;BME280;11728;50.624;6.014;2023-03-19T18:13:57;98350.75;;;13.62;66.48
23118;BME280;11728;50.624;6.014;2023-03-19T18:19:00;98346.50;;;13.57;67.28
23118;BME280;11728;50.624;6.014;2023-03-19T18:24:02;98356.56;;;13.47;67.89
23118;BME280;11728;50.624;6.014;2023-03-19T18:29:03;98356.72;;;13.43;68.40
23118;BME280;11728;50.624;6.014;2023-03-19T18:34:07;98370.22;;;13.35;69.22
23118;BME280;11728;50.624;6.014;2023-03-19T18:39:12;98368.50;;;13.34;69.69
23118;BME280;11728;50.624;6.014;2023-03-19T18:44:12;98381.28;;;13.22;71.09
23118;BME280;11728;50.624;6.014;2023-03-19T18:49:21;98386.69;;;13.19;72.29
23118;BME280;11728;50.624;6.014;2023-03-19T18:54:23;98386.88;;;13.13;72.87
23118;BME280;11728;50.624;6.014;2023-03-19T18:59:28;98393.16;;;13.10;73.66
23118;BME280;11728;50.624;6.014;2023-03-19T19:04:32;98404.78;;;13.05;74.58
23118;BME280;11728;50.624;6.014;2023-03-19T19:09:33;98411.06;;;13.03;75.32
23118;BME280;11728;50.624;6.014;2023-03-19T19:14:34;98410.19;;;13.02;75.59
23118;BME280;11728;50.624;6.014;2023-03-19T19:19:34;98423.34;;;13.05;76.36
23118;BME280;11728;50.624;6.014;2023-03-19T19:24:35;98432.13;;;13.07;76.40
23118;BME280;11728;50.624;6.014;2023-03-19T19:29:35;98440.97;;;12.77;78.73
23118;BME280;11728;50.624;6.014;2023-03-19T19:34:36;98451.47;;;12.50;80.99
23118;BME280;11728;50.624;6.014;2023-03-19T19:39:36;98460.28;;;12.19;82.37
23118;BME280;11728;50.624;6.014;2023-03-19T19:44:37;98477.59;;;11.98;83.14
23118;BME280;11728;50.624;6.014;2023-03-19T19:49:37;98483.25;;;11.83;83.55
23118;BME280;11728;50.624;6.014;2023-03-19T19:54:38;98493.41;;;11.65;84.53
23118;BME280;11728;50.624;6.014;2023-03-19T19:59:38;98506.13;;;11.48;85.39
23118;BME280;11728;50.624;6.014;2023-03-19T20:04:39;98504.63;;;11.38;85.65
23118;BME280;11728;50.624;6.014;2023-03-19T20:09:42;98513.63;;;11.28;86.07
23118;BME280;11728;50.624;6.014;2023-03-19T20:14:43;98517.50;;;11.12;86.48
23118;BME280;11728;50.624;6.014;2023-03-19T20:19:44;98523.88;;;11.02;86.89
23118;BME280;11728;50.624;6.014;2023-03-19T20:24:44;98526.59;;;10.99;86.50
23118;BME280;11728;50.624;6.014;2023-03-19T20:29:45;98543.34;;;10.98;86.79
23118;BME280;11728;50.624;6.014;2023-03-19T20:34:45;98552.13;;;11.00;86.50
23118;BME280;11728;50.624;6.014;2023-03-19T20:39:45;98551.94;;;11.09;85.74
23118;BME280;11728;50.624;6.014;2023-03-19T20:44:46;98565.25;;;11.03;85.67
23118;BME280;11728;50.624;6.014;2023-03-19T20:49:47;98568.28;;;10.85;86.18
23118;BME280;11728;50.624;6.014;2023-03-19T20:54:47;98574.38;;;10.87;86.06
23118;BME280;11728;50.624;6.014;2023-03-19T20:59:48;98567.31;;;10.89;85.80
23118;BME280;11728;50.624;6.014;2023-03-19T21:04:48;98563.78;;;10.90;85.54
23118;BME280;11728;50.624;6.014;2023-03-19T21:09:48;98572.72;;;10.83;85.73
23118;BME280;11728;50.624;6.014;2023-03-19T21:14:49;98565.66;;;10.85;85.47
23118;BME280;11728;50.624;6.014;2023-03-19T21:19:49;98577.03;;;10.87;85.19
23118;BME280;11728;50.624;6.014;2023-03-19T21:24:51;98576.22;;;10.85;85.43
23118;BME280;11728;50.624;6.014;2023-03-19T21:29:53;98579.66;;;10.87;85.21
23118;BME280;11728;50.624;6.014;2023-03-19T21:34:53;98573.56;;;10.84;85.37
23118;BME280;11728;50.624;6.014;2023-03-19T21:39:53;98571.78;;;10.86;85.21
23118;BME280;11728;50.624;6.014;2023-03-19T21:44:57;98574.50;;;10.81;85.19
23118;BME280;11728;50.624;6.014;2023-03-19T21:49:58;98572.84;;;10.77;85.25
23118;BME280;11728;50.624;6.014;2023-03-19T21:54:59;98580.81;;;10.74;85.51
23118;BME280;11728;50.624;6.014;2023-03-19T21:59:59;98581.78;;;10.69;85.77
23118;BME280;11728;50.624;6.014;2023-03-19T22:05:00;98589.03;;;10.60;85.97
23118;BME280;11728;50.624;6.014;2023-03-19T22:10:01;98591.19;;;10.37;86.69
23118;BME280;11728;50.624;6.014;2023-03-19T22:15:03;98595.00;;;10.21;87.43
23118;BME280;11728;50.624;6.014;2023-03-19T22:20:04;98609.16;;;10.14;87.27
23118;BME280;11728;50.624;6.014;2023-03-19T22:25:05;98610.97;;;10.10;87.47
23118;BME280;11728;50.624;6.014;2023-03-19T22:30:10;98616.44;;;10.00;87.27
23118;BME280;11728;50.624;6.014;2023-03-19T22:40:38;98619.03;;;10.03;86.02
23118;BME280;11728;50.624;6.014;2023-03-19T22:45:39;98617.31;;;10.00;85.63
23118;BME280;11728;50.624;6.014;2023-03-19T22:50:39;98609.47;;;9.94;85.31
23118;BME280;11728;50.624;6.014;2023-03-19T22:55:40;98614.75;;;9.93;85.17
23118;BME280;11728;50.624;6.014;2023-03-19T23:00:40;98614.72;;;9.96;84.63
23118;BME280;11728;50.624;6.014;2023-03-19T23:05:42;98618.19;;;10.01;84.41
23118;BME280;11728;50.624;6.014;2023-03-19T23:10:45;98617.34;;;9.97;83.90
23118;BME280;11728;50.624;6.014;2023-03-19T23:15:48;98610.38;;;9.92;84.07
23118;BME280;11728;50.624;6.014;2023-03-19T23:20:52;98611.28;;;9.90;84.07
23118;BME280;11728;50.624;6.014;2023-03-19T23:25:53;98617.38;;;9.94;83.66
23118;BME280;11728;50.624;6.014;2023-03-19T23:30:53;98617.25;;;10.03;83.20
23118;BME280;11728;50.624;6.014;2023-03-19T23:35:54;98626.00;;;10.07;82.67
23118;BME280;11728;50.624;6.014;2023-03-19T23:40:55;98634.94;;;9.95;83.44
23118;BME280;11728;50.624;6.014;2023-03-19T23:45:56;98632.28;;;9.97;83.37
23118;BME280;11728;50.624;6.014;2023-03-19T23:50:57;98638.56;;;9.90;83.62
23118;BME280;11728;50.624;6.014;2023-03-19T23:56:00;98638.56;;;9.89;83.63
